LIMF

Turin Airport

Torino, Italy
TAF LIMF 191700Z 1918/2018 VRB05KT CAVOK TEMPO 2004/2006 4000 BR
Issued Valid From Valid To
Sep-19 @ 17:00 UTC
(6 hours ago)
Sep-19 @ 18:00 UTC
(5 hours ago)
Sep-20 @ 18:00 UTC
(in 19 hours)
Sep-19 @ 18:00 to Sep-20 @ 18:00
TAF LIMF 191700Z 1918/2018 VRB05KT CAVOK
Wind Visibility Clouds Conditions
Variable at 5 knots 10,000+ meters
  • No significant clouds
Temporary Sep-20 @ 04:00 to Sep-20 @ 06:00
TEMPO 2004/2006 4000 BR
Visibility Conditions
4,007 meters
  • Mist
TAF LIMF 191700Z 1918/2018 VRB05KT CAVOK TEMPO 2004/2006 4000 BR
Issued Sep-19 @ 17:00 UTC
(6 hours ago)
Valid From Sep-19 @ 18:00 UTC
(5 hours ago)
Valid To Sep-20 @ 18:00 UTC
(in 19 hours)
Sep-19 @ 18:00 - Sep-20 @ 18:00
Wind Visibility
Variable at 5 knots 10,000+ meters
Clouds
  • No significant clouds
Conditions
Temporary Sep-20 @ 04:00 - Sep-20 @ 06:00
Conditions
  • Mist